createdAt,value
2018-09-17T00:02:42.707Z,17.00
2018-09-17T00:07:52.746Z,17.00
2018-09-17T00:13:02.668Z,16.90
2018-09-17T00:18:12.679Z,16.90
2018-09-17T00:23:22.676Z,14.20
2018-09-17T00:28:32.753Z,16.50
2018-09-17T00:33:42.667Z,16.70
2018-09-17T00:38:52.644Z,16.80
2018-09-17T00:44:02.568Z,16.80
2018-09-17T00:49:12.620Z,16.10
2018-09-17T00:54:22.704Z,15.70
2018-09-17T00:59:32.813Z,16.20
2018-09-17T01:04:42.836Z,16.40
2018-09-17T01:09:52.815Z,16.50
2018-09-17T01:15:02.848Z,16.40
2018-09-17T01:20:13.183Z,16.10
2018-09-17T01:25:23.267Z,15.80
2018-09-17T01:30:33.350Z,16.00
2018-09-17T01:35:43.320Z,15.80
2018-09-17T01:40:53.367Z,14.90
2018-09-17T01:46:03.424Z,14.20
2018-09-17T01:51:13.396Z,13.70
2018-09-17T01:56:23.489Z,13.60
2018-09-17T02:01:33.543Z,13.70
2018-09-17T02:06:43.568Z,13.90
2018-09-17T02:11:53.428Z,13.50
2018-09-17T02:17:03.304Z,13.30
2018-09-17T02:22:13.300Z,13.70
2018-09-17T02:27:23.320Z,13.80
2018-09-17T02:32:33.356Z,14.20
2018-09-17T02:37:43.208Z,14.50
2018-09-17T02:42:53.225Z,14.00
2018-09-17T02:48:03.216Z,14.40
2018-09-17T02:53:13.280Z,13.90
2018-09-17T02:58:23.300Z,13.30
2018-09-17T03:03:33.275Z,13.70
2018-09-17T03:08:43.464Z,14.30
2018-09-17T03:13:53.558Z,14.00
2018-09-17T03:19:03.598Z,13.60
2018-09-17T03:24:13.636Z,13.90
2018-09-17T03:29:23.676Z,13.40
2018-09-17T03:34:33.672Z,13.70
2018-09-17T03:39:43.756Z,14.30
2018-09-17T03:44:53.859Z,14.50
2018-09-17T03:50:03.766Z,15.00
2018-09-17T03:55:14.120Z,14.30
2018-09-17T04:00:24.128Z,13.90
2018-09-17T04:05:35.344Z,13.40
2018-09-17T04:10:45.298Z,12.90
2018-09-17T04:15:55.356Z,13.00
2018-09-17T04:21:05.380Z,13.00
2018-09-17T04:26:15.435Z,13.10
2018-09-17T04:31:25.410Z,13.20
2018-09-17T04:36:35.320Z,13.40
2018-09-17T04:41:45.392Z,13.40
2018-09-17T04:46:55.427Z,13.40
2018-09-17T04:52:05.409Z,13.40
2018-09-17T04:57:15.524Z,13.50
2018-09-17T05:02:25.384Z,13.50
2018-09-17T05:07:35.384Z,13.50
2018-09-17T05:12:45.445Z,13.50
2018-09-17T05:17:55.456Z,13.50
2018-09-17T05:23:05.485Z,13.90
2018-09-17T05:28:15.543Z,13.50
2018-09-17T05:33:25.619Z,13.40
2018-09-17T05:38:35.539Z,13.90
2018-09-17T05:43:45.664Z,13.90
2018-09-17T05:48:55.552Z,14.40
2018-09-17T05:54:05.580Z,13.90
2018-09-17T05:59:15.961Z,14.20
2018-09-17T06:04:25.915Z,14.50
2018-09-17T06:09:36.043Z,14.60
2018-09-17T06:14:45.867Z,14.40
2018-09-17T06:19:55.847Z,14.20
2018-09-17T06:25:05.826Z,14.20
2018-09-17T06:30:16.699Z,14.30
2018-09-17T06:35:26.888Z,14.60
2018-09-17T06:40:36.907Z,14.80
2018-09-17T06:45:46.939Z,15.10
2018-09-17T06:50:56.816Z,15.80
2018-09-17T06:56:06.895Z,16.20
2018-09-17T07:01:16.861Z,16.30
2018-09-17T07:06:26.919Z,16.80
2018-09-17T07:11:36.941Z,17.00
2018-09-17T07:16:46.824Z,17.20
2018-09-17T07:21:56.840Z,18.10
2018-09-17T07:27:06.861Z,18.30
2018-09-17T07:32:16.949Z,19.60
2018-09-17T07:37:26.842Z,20.00
2018-09-17T07:42:36.890Z,18.90
2018-09-17T07:47:46.892Z,18.80
2018-09-17T07:52:56.778Z,19.20
2018-09-17T07:58:06.805Z,20.40
2018-09-17T08:03:16.812Z,20.90
2018-09-17T08:08:26.703Z,22.00
2018-09-17T08:13:36.728Z,21.60
2018-09-17T08:18:46.669Z,20.60
2018-09-17T08:23:56.695Z,20.60
2018-09-17T08:29:06.744Z,21.50
2018-09-17T08:34:16.891Z,22.20
2018-09-17T08:39:26.928Z,21.20
2018-09-17T08:44:36.883Z,23.00
2018-09-17T08:49:46.960Z,22.70
2018-09-17T08:55:02.348Z,22.20
2018-09-17T09:00:19.559Z,23.20
2018-09-17T09:05:34.590Z,22.90
2018-09-17T09:10:46.365Z,23.80
2018-09-17T09:15:56.348Z,23.50
2018-09-17T09:21:07.073Z,24.40
2018-09-17T09:26:17.057Z,25.40
2018-09-17T09:31:26.868Z,26.20
2018-09-17T09:36:36.835Z,25.50
2018-09-17T09:41:46.887Z,26.40
2018-09-17T09:46:56.900Z,24.90
2018-09-17T09:52:06.968Z,27.90
2018-09-17T09:57:16.968Z,28.80
2018-09-17T10:02:31.017Z,26.90
2018-09-17T10:07:40.952Z,28.30
2018-09-17T10:12:56.403Z,28.40
2018-09-17T10:18:11.863Z,28.00
2018-09-17T10:23:21.876Z,29.10
2018-09-17T10:28:31.923Z,30.20
2018-09-17T10:33:41.929Z,31.60
2018-09-17T10:38:51.956Z,33.50
2018-09-17T10:44:02.032Z,34.80
2018-09-17T10:49:12.076Z,32.70
2018-09-17T10:54:22.106Z,34.20
2018-09-17T10:59:32.166Z,31.10
2018-09-17T11:04:42.279Z,30.90
2018-09-17T11:09:52.391Z,31.90
2018-09-17T11:15:02.447Z,32.30
2018-09-17T11:20:12.495Z,33.40
2018-09-17T11:25:22.544Z,31.30
2018-09-17T11:30:32.580Z,31.40
2018-09-17T11:35:42.591Z,33.60
2018-09-17T11:40:52.594Z,34.30
2018-09-17T11:46:02.673Z,34.50
2018-09-17T11:51:12.668Z,34.80
2018-09-17T11:56:22.676Z,33.90
2018-09-17T12:01:38.218Z,31.40
2018-09-17T12:06:53.315Z,32.60
2018-09-17T12:12:03.400Z,34.70
2018-09-17T12:17:13.399Z,35.40
2018-09-17T12:22:23.452Z,36.60
2018-09-17T12:27:33.488Z,31.70
2018-09-17T12:32:43.593Z,34.30
2018-09-17T12:37:53.501Z,35.20
2018-09-17T12:43:03.356Z,36.00
2018-09-17T12:48:13.413Z,36.80
2018-09-17T12:53:23.439Z,33.80
2018-09-17T12:58:33.351Z,32.30
2018-09-17T13:03:43.328Z,32.70
2018-09-17T13:08:53.335Z,33.00
2018-09-17T13:14:03.408Z,32.00
2018-09-17T13:19:13.453Z,32.40
2018-09-17T13:24:23.511Z,32.60
2018-09-17T13:29:33.541Z,32.70
2018-09-17T13:34:43.540Z,32.40
2018-09-17T13:39:53.577Z,31.40
2018-09-17T13:45:03.623Z,31.10
2018-09-17T13:50:13.569Z,33.30
2018-09-17T13:55:23.610Z,33.70
2018-09-17T14:00:33.634Z,33.70
2018-09-17T14:05:43.595Z,32.90
2018-09-17T14:10:53.565Z,32.40
2018-09-17T14:16:08.003Z,34.10
2018-09-17T14:21:18.037Z,32.60
2018-09-17T14:26:28.666Z,32.10
2018-09-17T14:31:44.032Z,33.10
2018-09-17T14:36:54.035Z,30.90
2018-09-17T14:42:04.080Z,31.00
2018-09-17T14:47:14.017Z,30.60
2018-09-17T14:52:23.984Z,30.40
2018-09-17T14:57:33.974Z,29.50
2018-09-17T15:02:44.006Z,28.40
2018-09-17T15:07:54.035Z,28.50
2018-09-17T15:13:04.033Z,28.20
2018-09-17T15:18:14.594Z,28.00
2018-09-17T15:23:24.793Z,28.20
2018-09-17T15:28:34.860Z,28.70
2018-09-17T15:33:44.888Z,29.20
2018-09-17T15:38:54.830Z,28.90
2018-09-17T15:44:04.904Z,27.70
2018-09-17T15:49:14.876Z,28.20
2018-09-17T15:54:24.918Z,27.70
2018-09-17T15:59:35.223Z,27.60
2018-09-17T16:04:45.305Z,27.30
2018-09-17T16:09:55.244Z,26.70
2018-09-17T16:15:05.115Z,26.30
2018-09-17T16:20:15.147Z,26.00
2018-09-17T16:25:25.173Z,25.80
2018-09-17T16:30:35.191Z,25.70
2018-09-17T16:35:45.369Z,25.50
2018-09-17T16:40:55.985Z,25.40
2018-09-17T16:46:05.926Z,25.30
2018-09-17T16:51:15.988Z,25.10
2018-09-17T16:56:26.326Z,24.90
2018-09-17T17:01:36.404Z,24.90
2018-09-17T17:06:47.576Z,24.80
2018-09-17T17:11:57.735Z,24.60
2018-09-17T17:17:07.764Z,24.70
2018-09-17T17:22:17.936Z,24.70
2018-09-17T17:27:28.760Z,24.60
2018-09-17T17:32:38.800Z,24.40
2018-09-17T17:37:48.966Z,24.20
2018-09-17T17:42:58.967Z,24.00
2018-09-17T17:48:08.976Z,23.80
2018-09-17T17:53:18.886Z,23.70
2018-09-17T17:58:30.120Z,23.50
2018-09-17T18:03:40.199Z,23.40
2018-09-17T18:08:50.189Z,23.30
2018-09-17T18:14:00.222Z,23.10
2018-09-17T18:19:10.232Z,23.00
2018-09-17T18:24:20.161Z,22.80
2018-09-17T18:29:30.125Z,22.70
2018-09-17T18:34:40.057Z,22.70
2018-09-17T18:39:50.070Z,22.50
2018-09-17T18:45:00.110Z,22.00
2018-09-17T18:50:10.215Z,21.90
2018-09-17T18:55:20.236Z,21.90
2018-09-17T19:00:30.728Z,21.80
2018-09-17T19:05:40.623Z,21.70
2018-09-17T19:10:50.641Z,21.60
2018-09-17T19:16:00.836Z,21.50
2018-09-17T19:21:11.072Z,21.40
2018-09-17T19:26:20.924Z,21.10
2018-09-17T19:31:31.242Z,20.90
2018-09-17T19:36:41.184Z,20.80
2018-09-17T19:41:51.135Z,20.90
2018-09-17T19:47:00.994Z,20.70
2018-09-17T19:52:16.333Z,20.40
2018-09-17T19:57:31.780Z,20.30
2018-09-17T20:02:41.908Z,20.30
2018-09-17T20:07:52.060Z,20.20
2018-09-17T20:13:01.983Z,20.10
2018-09-17T20:18:12.021Z,20.00
2018-09-17T20:23:21.961Z,20.00
2018-09-17T20:28:31.887Z,20.10
2018-09-17T20:33:41.972Z,20.40
2018-09-17T20:38:51.921Z,20.40
2018-09-17T20:44:01.856Z,20.40
2018-09-17T20:49:11.982Z,20.40
2018-09-17T20:54:21.932Z,20.50
2018-09-17T20:59:31.790Z,20.50
2018-09-17T21:04:41.735Z,20.40
2018-09-17T21:09:52.297Z,20.40
2018-09-17T21:15:02.389Z,20.40
2018-09-17T21:20:12.408Z,20.40
2018-09-17T21:25:22.594Z,20.30
2018-09-17T21:30:32.395Z,20.30
2018-09-17T21:35:42.272Z,20.20
2018-09-17T21:40:52.176Z,20.10
2018-09-17T21:46:02.036Z,20.00
2018-09-17T21:51:12.207Z,19.80
2018-09-17T21:56:22.098Z,19.70
2018-09-17T22:01:32.119Z,19.60
2018-09-17T22:06:42.104Z,19.50
2018-09-17T22:11:52.223Z,19.30
2018-09-17T22:17:02.192Z,19.20
2018-09-17T22:22:12.055Z,19.20
2018-09-17T22:27:22.073Z,19.10
2018-09-17T22:32:32.000Z,19.00
2018-09-17T22:37:42.045Z,18.90
2018-09-17T22:42:51.931Z,18.80
2018-09-17T22:48:01.876Z,18.60
2018-09-17T22:53:11.989Z,18.50
2018-09-17T22:58:21.959Z,18.50
2018-09-17T23:03:31.948Z,18.50
2018-09-17T23:08:43.291Z,18.50
2018-09-17T23:13:53.168Z,18.40
2018-09-17T23:19:03.235Z,18.20
2018-09-17T23:24:13.260Z,18.10
2018-09-17T23:29:23.192Z,18.10
2018-09-17T23:34:33.256Z,18.00
2018-09-17T23:39:43.318Z,17.80
2018-09-17T23:44:53.225Z,17.80
2018-09-17T23:50:03.232Z,17.80
2018-09-17T23:55:13.311Z,17.80
